Time;durP1;ratioP1;P1;durP2;ratioP2;P2;SDS_P1;SDS_P2;PMS_P1;PMS_P2;Temp;Humidity;BMP_temperature;BMP_pressure;BME280_temperature;BME280_humidity;BME280_pressure;Samples;Min_cycle;Max_cycle;Signal;HPM_P1;HPM_P2
2024/04/07 00:01:18;;;;;;;3.42;1.60;;;;;;;;;;10374207;28;20059;-66
2024/04/07 00:06:17;;;;;;;3.17;1.73;;;;;;;;;;10369095;28;20318;-65
2024/04/07 00:11:16;;;;;;;2.25;1.40;;;;;;;;;;10375027;28;20076;-65
2024/04/07 00:16:13;;;;;;;2.20;1.65;;;;;;;;;;10373802;28;20110;-65
2024/04/07 00:21:12;;;;;;;2.13;1.30;;;;;;;;;;10372963;28;20106;-66
2024/04/07 00:26:11;;;;;;;4.90;1.40;;;;;;;;;;10373305;28;20076;-66
2024/04/07 00:31:09;;;;;;;1.50;1.40;;;;;;;;;;10376098;28;20068;-64
2024/04/07 00:36:06;;;;;;;3.78;1.50;;;;;;;;;;10382729;28;20071;-66
2024/04/07 00:41:04;;;;;;;1.67;1.58;;;;;;;;;;10371653;28;20466;-66
2024/04/07 00:46:03;;;;;;;2.15;1.38;;;;;;;;;;10373560;28;20063;-67
2024/04/07 00:51:01;;;;;;;3.47;1.40;;;;;;;;;;10371940;28;20094;-66
2024/04/07 00:55:58;;;;;;;1.55;1.40;;;;;;;;;;10374474;28;20055;-66
2024/04/07 01:00:55;;;;;;;1.27;1.17;;;;;;;;;;10373151;28;20082;-66
2024/04/07 01:05:54;;;;;;;1.23;1.13;;;;;;;;;;10371930;28;20075;-65
2024/04/07 01:10:55;;;;;;;1.15;1.05;;;;;;;;;;10372939;28;20070;-66
2024/04/07 01:15:52;;;;;;;3.42;1.48;;;;;;;;;;10372033;28;20086;-65
2024/04/07 01:20:50;;;;;;;1.70;1.52;;;;;;;;;;10370898;28;20083;-64
2024/04/07 01:25:48;;;;;;;5.68;1.73;;;;;;;;;;10370396;28;20068;-65
2024/04/07 01:30:46;;;;;;;4.32;1.52;;;;;;;;;;10370313;28;20079;-65
2024/04/07 01:35:43;;;;;;;5.40;1.90;;;;;;;;;;10369388;28;20082;-65
2024/04/07 01:40:41;;;;;;;3.25;1.52;;;;;;;;;;10369900;28;20080;-65
2024/04/07 01:45:40;;;;;;;2.65;1.75;;;;;;;;;;10369495;28;20060;-65
2024/04/07 01:50:37;;;;;;;2.55;1.55;;;;;;;;;;10372472;28;20067;-65
2024/04/07 01:55:35;;;;;;;2.53;1.63;;;;;;;;;;10378943;28;20059;-65
2024/04/07 02:00:33;;;;;;;1.60;1.50;;;;;;;;;;10367902;28;20064;-65
2024/04/07 02:05:31;;;;;;;3.58;2.40;;;;;;;;;;10368960;28;20074;-65
2024/04/07 02:10:29;;;;;;;2.25;2.05;;;;;;;;;;10368117;28;20072;-65
2024/04/07 02:15:26;;;;;;;2.88;2.30;;;;;;;;;;10367484;28;20098;-65
2024/04/07 02:20:24;;;;;;;2.58;2.22;;;;;;;;;;10353289;28;20083;-65
2024/04/07 02:25:23;;;;;;;9.70;8.70;;;;;;;;;;10366342;28;20459;-65
2024/04/07 02:30:20;;;;;;;12.73;11.50;;;;;;;;;;10367412;28;20067;-65
2024/04/07 02:35:17;;;;;;;7.68;7.03;;;;;;;;;;10367992;28;20103;-65
2024/04/07 02:40:15;;;;;;;6.57;4.63;;;;;;;;;;10365142;28;20082;-65
2024/04/07 02:50:29;;;;;;;5.90;3.47;;;;;;;;;;10365727;28;20516;-65
2024/04/07 02:55:27;;;;;;;3.25;2.70;;;;;;;;;;10362994;28;20071;-65
2024/04/07 03:00:26;;;;;;;2.97;2.72;;;;;;;;;;10348733;28;20067;-64
2024/04/07 03:05:24;;;;;;;4.47;3.30;;;;;;;;;;10366988;28;20063;-65
2024/04/07 03:10:21;;;;;;;2.58;2.38;;;;;;;;;;10367044;28;20098;-65
2024/04/07 03:15:19;;;;;;;2.30;2.03;;;;;;;;;;10368189;28;20082;-65
2024/04/07 03:20:17;;;;;;;2.42;2.22;;;;;;;;;;10365583;28;20079;-66
2024/04/07 03:25:15;;;;;;;2.75;2.50;;;;;;;;;;10365489;28;20079;-64
2024/04/07 03:30:13;;;;;;;3.22;2.40;;;;;;;;;;10365672;28;20075;-66
2024/04/07 03:35:10;;;;;;;3.85;2.90;;;;;;;;;;10364263;28;20079;-66
2024/04/07 03:40:10;;;;;;;4.47;3.22;;;;;;;;;;10366388;28;20078;-65
2024/04/07 03:45:11;;;;;;;6.68;3.50;;;;;;;;;;10369514;28;20075;-65
2024/04/07 03:50:08;;;;;;;3.50;3.20;;;;;;;;;;10365797;28;20079;-65
2024/04/07 03:55:06;;;;;;;4.70;3.40;;;;;;;;;;10367085;28;20071;-66
2024/04/07 04:00:06;;;;;;;3.90;3.45;;;;;;;;;;10367268;28;20075;-65
2024/04/07 04:05:08;;;;;;;4.15;3.55;;;;;;;;;;10369370;28;20087;-64
2024/04/07 04:10:07;;;;;;;4.53;3.35;;;;;;;;;;10366290;28;21581;-66
2024/04/07 04:15:06;;;;;;;3.50;3.17;;;;;;;;;;10363922;28;20102;-66
2024/04/07 04:20:04;;;;;;;3.13;2.83;;;;;;;;;;10364126;28;20079;-65
2024/04/07 04:25:01;;;;;;;4.38;3.25;;;;;;;;;;10365493;28;20043;-65
2024/04/07 04:29:59;;;;;;;3.50;3.20;;;;;;;;;;10368129;28;20397;-65
2024/04/07 04:34:58;;;;;;;4.00;3.08;;;;;;;;;;10371670;28;20071;-65
2024/04/07 04:39:56;;;;;;;7.30;2.95;;;;;;;;;;10372764;28;20855;-65
2024/04/07 04:44:53;;;;;;;5.07;2.50;;;;;;;;;;10372868;28;20071;-65
2024/04/07 04:49:50;;;;;;;2.70;2.33;;;;;;;;;;10372465;28;20117;-65
2024/04/07 04:54:49;;;;;;;7.00;3.80;;;;;;;;;;10371127;28;20473;-65
2024/04/07 04:59:47;;;;;;;4.05;3.63;;;;;;;;;;10370885;28;20076;-65
2024/04/07 05:04:45;;;;;;;3.00;2.70;;;;;;;;;;10373894;28;20075;-65
2024/04/07 05:09:42;;;;;;;3.88;2.85;;;;;;;;;;10370894;28;20524;-64
2024/04/07 05:14:41;;;;;;;4.50;3.65;;;;;;;;;;10369723;28;20550;-65
2024/04/07 05:19:39;;;;;;;9.38;5.95;;;;;;;;;;10372529;28;20481;-66
2024/04/07 05:24:36;;;;;;;4.70;3.20;;;;;;;;;;10379036;28;20091;-64
2024/04/07 05:29:33;;;;;;;6.30;4.38;;;;;;;;;;10380820;28;20531;-66
2024/04/07 05:34:32;;;;;;;4.88;4.38;;;;;;;;;;10368802;28;20044;-64
2024/04/07 05:39:30;;;;;;;6.70;4.70;;;;;;;;;;10378372;28;20071;-65
2024/04/07 05:44:28;;;;;;;5.82;3.25;;;;;;;;;;10370100;28;20059;-64
2024/04/07 05:49:25;;;;;;;5.57;3.38;;;;;;;;;;10369827;28;20098;-65
2024/04/07 05:54:24;;;;;;;4.68;2.90;;;;;;;;;;10370639;28;20071;-65
2024/04/07 05:59:22;;;;;;;4.72;3.63;;;;;;;;;;10368554;28;20075;-65
2024/04/07 06:04:20;;;;;;;5.88;3.85;;;;;;;;;;10369877;28;20472;-65
2024/04/07 06:09:17;;;;;;;4.75;3.53;;;;;;;;;;10368550;28;20072;-65
2024/04/07 06:14:16;;;;;;;7.43;3.90;;;;;;;;;;10369265;28;20087;-65
2024/04/07 06:19:14;;;;;;;5.25;4.07;;;;;;;;;;10367751;28;20090;-65
2024/04/07 06:24:11;;;;;;;8.95;4.30;;;;;;;;;;10371320;28;20109;-65
2024/04/07 06:29:09;;;;;;;4.80;3.60;;;;;;;;;;10369156;28;20095;-65
2024/04/07 06:34:08;;;;;;;5.97;3.95;;;;;;;;;;10373555;27;20531;-64
2024/04/07 06:39:05;;;;;;;10.57;9.57;;;;;;;;;;10366439;27;20075;-64
2024/04/07 06:44:03;;;;;;;4.43;3.97;;;;;;;;;;10365113;28;20062;-64
2024/04/07 06:49:00;;;;;;;5.00;4.13;;;;;;;;;;10356395;28;20135;-64
2024/04/07 06:53:59;;;;;;;4.75;4.20;;;;;;;;;;10370080;28;20079;-64
2024/04/07 06:58:57;;;;;;;7.32;4.88;;;;;;;;;;10363645;28;20567;-64
2024/04/07 07:03:54;;;;;;;7.28;4.57;;;;;;;;;;10373586;28;20071;-65
2024/04/07 07:08:52;;;;;;;8.43;5.40;;;;;;;;;;10372191;28;20072;-65
2024/04/07 07:13:51;;;;;;;6.35;4.82;;;;;;;;;;10364433;28;20083;-65
2024/04/07 07:18:49;;;;;;;7.10;4.80;;;;;;;;;;10368343;28;20067;-65
2024/04/07 07:23:46;;;;;;;7.38;4.30;;;;;;;;;;10367158;28;20063;-65
2024/04/07 07:28:44;;;;;;;6.20;4.50;;;;;;;;;;10365794;28;20052;-65
2024/04/07 07:33:43;;;;;;;8.35;4.63;;;;;;;;;;10365238;28;20075;-64
2024/04/07 07:38:40;;;;;;;7.03;4.15;;;;;;;;;;10365910;28;20083;-65
2024/04/07 07:43:38;;;;;;;10.27;4.18;;;;;;;;;;10368023;28;20082;-63
2024/04/07 07:48:39;;;;;;;6.00;3.35;;;;;;;;;;10365577;28;20626;-64
2024/04/07 07:53:38;;;;;;;4.05;2.88;;;;;;;;;;10368212;28;20067;-64
2024/04/07 07:58:36;;;;;;;7.88;5.50;;;;;;;;;;10365869;28;20571;-65
2024/04/07 08:03:35;;;;;;;7.07;3.97;;;;;;;;;;10366353;28;20072;-64
2024/04/07 08:08:32;;;;;;;3.22;2.95;;;;;;;;;;10373990;28;20083;-64
2024/04/07 08:13:32;;;;;;;5.18;2.60;;;;;;;;;;10375161;28;20079;-65
2024/04/07 08:18:30;;;;;;;4.15;2.92;;;;;;;;;;10372463;28;20082;-64
2024/04/07 08:23:27;;;;;;;9.90;3.03;;;;;;;;;;10372217;28;20070;-65
2024/04/07 08:28:25;;;;;;;5.55;2.83;;;;;;;;;;10372699;28;20044;-64
2024/04/07 08:33:24;;;;;;;7.40;2.90;;;;;;;;;;10375343;28;20067;-64
2024/04/07 08:38:22;;;;;;;5.60;2.90;;;;;;;;;;10371525;28;20070;-64
2024/04/07 08:43:20;;;;;;;4.35;3.15;;;;;;;;;;10373547;28;20059;-65
2024/04/07 08:48:19;;;;;;;5.18;3.08;;;;;;;;;;10356919;28;20055;-65
2024/04/07 08:53:18;;;;;;;5.10;2.47;;;;;;;;;;10372389;28;20574;-65
2024/04/07 08:58:16;;;;;;;5.05;2.67;;;;;;;;;;10371529;28;20060;-65
2024/04/07 09:03:14;;;;;;;5.32;2.22;;;;;;;;;;10370197;28;20153;-64
2024/04/07 09:08:12;;;;;;;5.18;3.05;;;;;;;;;;10373767;28;20086;-65
2024/04/07 09:13:11;;;;;;;3.47;2.35;;;;;;;;;;10373142;28;20471;-65
2024/04/07 09:18:09;;;;;;;9.55;6.47;;;;;;;;;;10369392;28;20078;-65
2024/04/07 09:23:07;;;;;;;5.47;3.20;;;;;;;;;;10369757;28;20080;-65
2024/04/07 09:28:05;;;;;;;4.03;3.58;;;;;;;;;;10370219;28;20078;-66
2024/04/07 09:33:04;;;;;;;3.67;2.92;;;;;;;;;;10371609;28;20082;-65
2024/04/07 09:38:01;;;;;;;4.63;4.10;;;;;;;;;;10370027;28;20059;-66
2024/04/07 09:42:59;;;;;;;5.50;2.63;;;;;;;;;;10372247;28;20528;-66
2024/04/07 09:47:59;;;;;;;4.45;3.15;;;;;;;;;;10369503;28;20060;-65
2024/04/07 09:53:00;;;;;;;2.13;1.92;;;;;;;;;;10367011;28;20067;-66
2024/04/07 09:57:59;;;;;;;3.45;2.25;;;;;;;;;;10376899;28;20063;-64
2024/04/07 10:02:56;;;;;;;4.75;2.55;;;;;;;;;;10371673;28;20071;-65
2024/04/07 10:07:54;;;;;;;3.67;2.60;;;;;;;;;;10365264;27;20055;-64
2024/04/07 10:12:53;;;;;;;3.20;2.25;;;;;;;;;;10371558;28;20083;-65
2024/04/07 10:17:51;;;;;;;4.53;2.22;;;;;;;;;;10368040;28;20070;-65
2024/04/07 10:22:48;;;;;;;4.10;2.38;;;;;;;;;;10367631;28;20101;-65
2024/04/07 10:27:46;;;;;;;2.47;2.28;;;;;;;;;;10370419;28;20055;-65
2024/04/07 10:32:50;;;;;;;3.63;1.90;;;;;;;;;;10369275;28;20055;-65
2024/04/07 10:37:51;;;;;;;3.00;2.00;;;;;;;;;;10372245;28;20659;-65
2024/04/07 10:42:48;;;;;;;4.20;2.33;;;;;;;;;;10381480;28;20066;-64
2024/04/07 10:47:48;;;;;;;2.67;2.10;;;;;;;;;;10373463;28;20078;-64
2024/04/07 10:52:45;;;;;;;3.65;2.28;;;;;;;;;;10373186;28;20644;-65
2024/04/07 10:57:43;;;;;;;2.88;1.80;;;;;;;;;;10373061;28;20060;-65
2024/04/07 11:02:40;;;;;;;3.60;2.00;;;;;;;;;;10374347;28;20071;-65
2024/04/07 11:07:39;;;;;;;2.65;2.08;;;;;;;;;;10371419;28;20059;-65
2024/04/07 11:12:42;;;;;;;2.67;2.10;;;;;;;;;;10367101;28;20079;-65
2024/04/07 11:17:39;;;;;;;3.67;1.98;;;;;;;;;;10367544;28;20520;-65
2024/04/07 11:22:37;;;;;;;3.10;1.85;;;;;;;;;;10365633;28;20066;-65
2024/04/07 11:27:39;;;;;;;4.45;1.27;;;;;;;;;;10366405;28;20173;-66
2024/04/07 11:32:37;;;;;;;2.05;1.67;;;;;;;;;;10363112;28;20098;-66
2024/04/07 11:37:34;;;;;;;2.67;1.90;;;;;;;;;;10364086;28;20085;-66
2024/04/07 11:42:32;;;;;;;3.47;1.73;;;;;;;;;;10367923;28;20091;-66
2024/04/07 11:47:31;;;;;;;4.38;2.13;;;;;;;;;;10372744;28;20072;-65
2024/04/07 11:52:28;;;;;;;3.85;1.88;;;;;;;;;;10376928;28;20450;-64
2024/04/07 11:57:27;;;;;;;4.78;2.00;;;;;;;;;;10371663;27;20070;-65
2024/04/07 12:02:24;;;;;;;2.70;1.60;;;;;;;;;;10385272;28;20546;-65
2024/04/07 12:07:23;;;;;;;3.17;1.83;;;;;;;;;;10375827;27;20066;-65
2024/04/07 12:12:21;;;;;;;6.47;1.58;;;;;;;;;;10383311;28;20535;-65
2024/04/07 12:17:18;;;;;;;4.93;1.77;;;;;;;;;;10371687;28;20075;-65
2024/04/07 12:22:16;;;;;;;3.28;1.60;;;;;;;;;;10378553;28;20071;-65
2024/04/07 12:27:15;;;;;;;2.80;2.10;;;;;;;;;;10375577;28;20098;-65
2024/04/07 12:32:13;;;;;;;4.32;3.08;;;;;;;;;;10373129;28;20059;-65
2024/04/07 12:37:10;;;;;;;2.22;1.80;;;;;;;;;;10372979;28;20079;-64
2024/04/07 12:42:08;;;;;;;3.75;2.63;;;;;;;;;;10374251;28;20067;-65
2024/04/07 12:47:07;;;;;;;4.05;1.77;;;;;;;;;;10380557;28;20076;-65
2024/04/07 12:52:04;;;;;;;4.85;2.00;;;;;;;;;;10372964;28;20528;-65
2024/04/07 12:57:02;;;;;;;5.80;1.92;;;;;;;;;;10381567;28;20066;-65
2024/04/07 13:02:00;;;;;;;6.32;2.92;;;;;;;;;;10372352;28;20095;-65
2024/04/07 13:06:58;;;;;;;3.15;1.65;;;;;;;;;;10371635;28;20063;-65
2024/04/07 13:11:56;;;;;;;5.22;1.77;;;;;;;;;;10375294;28;20070;-65
2024/04/07 13:16:54;;;;;;;3.03;1.80;;;;;;;;;;10371884;27;20064;-65
2024/04/07 13:21:51;;;;;;;3.15;2.05;;;;;;;;;;10372304;28;20071;-65
2024/04/07 13:26:50;;;;;;;5.40;1.90;;;;;;;;;;10369636;28;20527;-65
2024/04/07 13:31:48;;;;;;;4.18;2.08;;;;;;;;;;10373736;28;20072;-65
2024/04/07 13:36:46;;;;;;;4.95;2.25;;;;;;;;;;10369558;28;20078;-65
2024/04/07 13:41:43;;;;;;;4.18;1.75;;;;;;;;;;10374002;28;20082;-65
2024/04/07 13:46:45;;;;;;;4.18;2.13;;;;;;;;;;10356867;28;20081;-64
2024/04/07 13:51:42;;;;;;;3.35;2.20;;;;;;;;;;10376354;28;20066;-65
2024/04/07 13:56:40;;;;;;;3.33;1.70;;;;;;;;;;10370487;28;20060;-65
2024/04/07 14:01:37;;;;;;;1.95;1.67;;;;;;;;;;10369007;28;20075;-64
2024/04/07 14:06:36;;;;;;;4.82;2.30;;;;;;;;;;10381611;27;20089;-65
2024/04/07 14:11:33;;;;;;;5.13;1.60;;;;;;;;;;10369103;28;20140;-63
2024/04/07 14:16:34;;;;;;;7.43;2.15;;;;;;;;;;10373280;28;20075;-64
2024/04/07 14:21:32;;;;;;;2.40;1.75;;;;;;;;;;10371985;28;20087;-65
2024/04/07 14:26:31;;;;;;;4.93;2.10;;;;;;;;;;10369397;28;20494;-64
2024/04/07 14:31:28;;;;;;;4.38;1.70;;;;;;;;;;10368598;28;20067;-63
2024/04/07 14:36:26;;;;;;;4.45;2.15;;;;;;;;;;10380329;28;20078;-63
2024/04/07 14:41:23;;;;;;;2.35;2.03;;;;;;;;;;10371316;28;20067;-62
2024/04/07 14:46:22;;;;;;;7.22;2.00;;;;;;;;;;10370332;28;20068;-63
2024/04/07 14:51:20;;;;;;;8.63;2.72;;;;;;;;;;10367279;28;20087;-65
2024/04/07 14:56:18;;;;;;;5.97;1.80;;;;;;;;;;10366403;28;20543;-63
2024/04/07 15:01:15;;;;;;;5.72;2.00;;;;;;;;;;10371412;28;20512;-64
2024/04/07 15:06:16;;;;;;;5.38;2.80;;;;;;;;;;10361059;28;20082;-65
2024/04/07 15:11:13;;;;;;;4.40;2.22;;;;;;;;;;10365274;28;20158;-64
2024/04/07 15:16:10;;;;;;;4.13;1.77;;;;;;;;;;10367769;28;20075;-65
2024/04/07 15:21:08;;;;;;;8.13;2.10;;;;;;;;;;10364548;28;20079;-65
2024/04/07 15:26:11;;;;;;;2.35;2.15;;;;;;;;;;10366213;28;20824;-65
2024/04/07 15:31:08;;;;;;;3.70;2.08;;;;;;;;;;10369382;28;20169;-64
2024/04/07 15:36:07;;;;;;;3.75;2.15;;;;;;;;;;10371231;28;20082;-66
2024/04/07 15:41:04;;;;;;;3.75;2.15;;;;;;;;;;10367566;28;20071;-66
2024/04/07 15:46:07;;;;;;;5.90;2.85;;;;;;;;;;10363458;28;20068;-66
2024/04/07 15:51:05;;;;;;;5.63;1.80;;;;;;;;;;10366585;28;20710;-65
2024/04/07 15:56:03;;;;;;;3.55;2.50;;;;;;;;;;10369457;28;20072;-65
2024/04/07 16:01:00;;;;;;;3.35;1.95;;;;;;;;;;10376509;28;20484;-64
2024/04/07 16:05:59;;;;;;;3.15;1.85;;;;;;;;;;10367938;28;20068;-65
2024/04/07 16:10:56;;;;;;;3.40;2.10;;;;;;;;;;10365914;28;20067;-65
2024/04/07 16:15:54;;;;;;;8.32;2.35;;;;;;;;;;10372766;28;20453;-65
2024/04/07 16:20:51;;;;;;;3.05;1.83;;;;;;;;;;10386140;28;20068;-66
2024/04/07 16:25:50;;;;;;;5.75;2.47;;;;;;;;;;10371046;28;20059;-65
2024/04/07 16:30:57;;;;;;;3.70;2.03;;;;;;;;;;10370174;28;20479;-67
2024/04/07 16:35:55;;;;;;;8.15;4.15;;;;;;;;;;10373708;27;20060;-66
2024/04/07 16:40:57;;;;;;;6.40;2.72;;;;;;;;;;10373485;28;20076;-67
2024/04/07 16:45:55;;;;;;;4.18;1.90;;;;;;;;;;10375170;28;20082;-66
2024/04/07 16:50:56;;;;;;;3.05;2.28;;;;;;;;;;10380531;22;20067;-66
2024/04/07 16:55:54;;;;;;;3.47;2.53;;;;;;;;;;10343467;28;20052;-66
2024/04/07 17:00:56;;;;;;;5.13;2.70;;;;;;;;;;10345182;28;20071;-67
2024/04/07 17:05:53;;;;;;;4.80;2.97;;;;;;;;;;10328685;28;20587;-67
2024/04/07 17:10:51;;;;;;;4.30;3.42;;;;;;;;;;10338154;28;20067;-67
2024/04/07 17:15:48;;;;;;;5.55;3.58;;;;;;;;;;10333718;28;20068;-56
2024/04/07 17:20:47;;;;;;;6.68;4.07;;;;;;;;;;10334800;28;20086;-58
2024/04/07 17:25:45;;;;;;;6.28;3.60;;;;;;;;;;10335155;28;20086;-58
2024/04/07 17:30:42;;;;;;;5.90;4.22;;;;;;;;;;10316295;28;20071;-58
2024/04/07 17:35:41;;;;;;;5.80;3.75;;;;;;;;;;10341305;28;20083;-57
2024/04/07 17:40:40;;;;;;;8.23;4.00;;;;;;;;;;10337549;28;20064;-58
2024/04/07 17:45:42;;;;;;;5.60;3.15;;;;;;;;;;10331218;28;20064;-57
2024/04/07 17:50:39;;;;;;;6.28;2.85;;;;;;;;;;10335459;28;20509;-57
2024/04/07 17:55:37;;;;;;;6.50;3.05;;;;;;;;;;10332417;28;20098;-57
2024/04/07 18:00:36;;;;;;;4.80;2.70;;;;;;;;;;10330363;28;20075;-57
2024/04/07 18:05:33;;;;;;;7.90;5.82;;;;;;;;;;10329729;28;20105;-57
2024/04/07 18:10:31;;;;;;;5.82;4.72;;;;;;;;;;10328517;28;20062;-58
2024/04/07 18:15:31;;;;;;;6.47;4.80;;;;;;;;;;10314093;28;20068;-57
2024/04/07 18:20:30;;;;;;;9.23;6.68;;;;;;;;;;10330881;28;20465;-57
2024/04/07 18:25:28;;;;;;;5.95;3.78;;;;;;;;;;10331197;28;20068;-57
2024/04/07 18:30:26;;;;;;;4.75;2.85;;;;;;;;;;10325668;28;20083;-58
2024/04/07 18:35:23;;;;;;;8.00;5.43;;;;;;;;;;10334864;28;20064;-57
2024/04/07 18:40:24;;;;;;;9.50;6.80;;;;;;;;;;10332350;28;20067;-59
2024/04/07 18:45:22;;;;;;;10.75;6.18;;;;;;;;;;10341291;28;20137;-57
2024/04/07 18:50:19;;;;;;;10.68;6.18;;;;;;;;;;10344091;28;20072;-57
2024/04/07 18:55:17;;;;;;;6.38;4.60;;;;;;;;;;10331824;28;20079;-58
2024/04/07 19:00:16;;;;;;;6.30;4.53;;;;;;;;;;10329024;28;20075;-59
2024/04/07 19:05:14;;;;;;;6.22;4.72;;;;;;;;;;10329329;28;20539;-58
2024/04/07 19:10:11;;;;;;;6.25;3.47;;;;;;;;;;10326777;28;20060;-57
2024/04/07 19:15:09;;;;;;;3.17;2.88;;;;;;;;;;10334784;28;20091;-57
2024/04/07 19:20:09;;;;;;;4.00;3.60;;;;;;;;;;10333412;28;20550;-57
2024/04/07 19:25:07;;;;;;;4.63;2.88;;;;;;;;;;10327462;28;20087;-54
2024/04/07 19:30:05;;;;;;;4.22;3.10;;;;;;;;;;10329812;28;20063;-55
2024/04/07 19:35:04;;;;;;;4.47;2.72;;;;;;;;;;10323972;28;20098;-55
2024/04/07 19:40:02;;;;;;;3.50;2.55;;;;;;;;;;10327871;28;20060;-53
2024/04/07 19:45:05;;;;;;;4.68;3.72;;;;;;;;;;10319358;28;20072;-51
2024/04/07 19:50:02;;;;;;;6.40;2.70;;;;;;;;;;10329048;28;20071;-57
2024/04/07 19:55:01;;;;;;;2.78;2.50;;;;;;;;;;10327010;28;20072;-58
2024/04/07 20:00:01;;;;;;;2.53;2.03;;;;;;;;;;10329659;28;20083;-51
2024/04/07 20:04:59;;;;;;;2.80;2.10;;;;;;;;;;10335384;28;20083;-55
2024/04/07 20:09:56;;;;;;;3.90;2.35;;;;;;;;;;10332157;28;20524;-54
2024/04/07 20:14:57;;;;;;;4.03;2.70;;;;;;;;;;10335004;28;20063;-55
2024/04/07 20:19:55;;;;;;;3.08;2.65;;;;;;;;;;10334337;28;20067;-58
2024/04/07 20:24:55;;;;;;;3.92;2.28;;;;;;;;;;10330584;28;20079;-57
2024/04/07 20:29:54;;;;;;;3.95;2.80;;;;;;;;;;10336575;28;20056;-58
2024/04/07 20:34:51;;;;;;;5.45;2.50;;;;;;;;;;10336834;28;20071;-58
2024/04/07 20:39:53;;;;;;;2.38;2.17;;;;;;;;;;10314150;28;20789;-59
2024/04/07 20:44:50;;;;;;;4.28;2.63;;;;;;;;;;10322939;28;20083;-58
2024/04/07 20:49:48;;;;;;;3.88;2.83;;;;;;;;;;10328955;28;20060;-58
2024/04/07 20:54:45;;;;;;;5.78;2.80;;;;;;;;;;10328373;28;20078;-56
2024/04/07 20:59:44;;;;;;;3.05;2.70;;;;;;;;;;10328294;28;20067;-57
2024/04/07 21:04:42;;;;;;;5.65;3.03;;;;;;;;;;10332441;28;20086;-57
2024/04/07 21:09:39;;;;;;;3.42;2.50;;;;;;;;;;10336513;28;20056;-56
2024/04/07 21:14:37;;;;;;;2.92;2.35;;;;;;;;;;10334942;28;20092;-54
2024/04/07 21:19:36;;;;;;;2.70;2.33;;;;;;;;;;10340132;28;20068;-56
2024/04/07 21:24:33;;;;;;;2.45;2.15;;;;;;;;;;10342336;28;20076;-58
2024/04/07 21:29:31;;;;;;;2.95;1.98;;;;;;;;;;10335034;28;20067;-59
2024/04/07 21:34:29;;;;;;;3.17;2.22;;;;;;;;;;10322154;28;20075;-57
2024/04/07 21:39:28;;;;;;;4.63;2.55;;;;;;;;;;10330930;28;20067;-58
2024/04/07 21:44:25;;;;;;;4.38;2.72;;;;;;;;;;10330164;28;20071;-58
2024/04/07 21:49:23;;;;;;;4.35;1.92;;;;;;;;;;10331018;28;20067;-58
2024/04/07 21:54:20;;;;;;;4.00;2.53;;;;;;;;;;10332859;28;20106;-58
2024/04/07 21:59:19;;;;;;;5.45;2.58;;;;;;;;;;10333394;28;20951;-56
2024/04/07 22:04:17;;;;;;;3.47;2.40;;;;;;;;;;10326081;28;20080;-59
2024/04/07 22:09:15;;;;;;;4.72;2.60;;;;;;;;;;10328894;28;20083;-57
2024/04/07 22:14:12;;;;;;;2.22;2.03;;;;;;;;;;10329658;28;20064;-59
2024/04/07 22:19:14;;;;;;;3.65;2.70;;;;;;;;;;10330680;28;20074;-58
2024/04/07 22:24:12;;;;;;;3.20;2.33;;;;;;;;;;10326755;28;20556;-59
2024/04/07 22:29:10;;;;;;;3.03;2.30;;;;;;;;;;10326511;28;20075;-60
2024/04/07 22:34:11;;;;;;;2.88;2.38;;;;;;;;;;10337479;28;20071;-59
2024/04/07 22:39:08;;;;;;;5.82;2.70;;;;;;;;;;10332171;28;20090;-58
2024/04/07 22:44:05;;;;;;;3.95;2.47;;;;;;;;;;10326366;28;20524;-59
2024/04/07 22:49:03;;;;;;;3.83;2.40;;;;;;;;;;10324902;28;20067;-59
2024/04/07 22:54:02;;;;;;;3.13;2.28;;;;;;;;;;10334181;28;20103;-57
2024/04/07 22:59:00;;;;;;;6.07;2.60;;;;;;;;;;10329403;28;20072;-59
2024/04/07 23:03:58;;;;;;;3.83;2.75;;;;;;;;;;10333789;28;20083;-58
2024/04/07 23:08:56;;;;;;;3.22;2.92;;;;;;;;;;10331521;28;20516;-58
2024/04/07 23:13:55;;;;;;;7.15;2.60;;;;;;;;;;10339635;28;20075;-59
2024/04/07 23:18:53;;;;;;;2.67;2.47;;;;;;;;;;10336040;28;20066;-56
2024/04/07 23:23:50;;;;;;;4.55;2.95;;;;;;;;;;10329521;28;20102;-60
2024/04/07 23:28:47;;;;;;;4.38;2.58;;;;;;;;;;10324761;28;20079;-58
2024/04/07 23:33:46;;;;;;;3.40;3.00;;;;;;;;;;10329905;28;20062;-56
2024/04/07 23:38:44;;;;;;;3.80;3.10;;;;;;;;;;10328787;28;20068;-58
2024/04/07 23:43:41;;;;;;;3.55;3.03;;;;;;;;;;10327717;28;20068;-58
2024/04/07 23:48:39;;;;;;;2.30;2.10;;;;;;;;;;10326774;28;20080;-58
2024/04/07 23:53:38;;;;;;;6.32;3.00;;;;;;;;;;10319166;28;20417;-58
2024/04/07 23:58:35;;;;;;;5.38;2.50;;;;;;;;;;10328062;28;20075;-58
